createdAt,value
2022-07-29T00:00:54.883Z,1.63
2022-07-29T00:03:21.272Z,1.95
2022-07-29T00:05:47.624Z,1.50
2022-07-29T00:08:14.135Z,1.85
2022-07-29T00:10:40.453Z,1.98
2022-07-29T00:13:06.904Z,1.70
2022-07-29T00:15:33.317Z,2.08
2022-07-29T00:17:59.708Z,1.85
2022-07-29T00:20:25.989Z,1.70
2022-07-29T00:22:52.882Z,2.00
2022-07-29T00:25:19.139Z,1.90
2022-07-29T00:27:46.986Z,1.75
2022-07-29T00:30:13.377Z,1.85
2022-07-29T00:32:39.726Z,2.33
2022-07-29T00:35:24.671Z,1.70
2022-07-29T00:37:51.026Z,2.30
2022-07-29T00:40:17.353Z,1.65
2022-07-29T00:42:50.824Z,1.90
2022-07-29T00:45:17.828Z,1.60
2022-07-29T00:47:45.395Z,1.80
2022-07-29T00:50:12.971Z,1.90
2022-07-29T00:52:39.983Z,2.00
2022-07-29T00:55:08.831Z,1.70
2022-07-29T00:57:36.167Z,2.10
2022-07-29T01:00:04.148Z,2.00
2022-07-29T01:02:30.492Z,1.90
2022-07-29T01:04:58.002Z,2.30
2022-07-29T01:07:25.316Z,1.88
2022-07-29T01:09:51.724Z,2.00
2022-07-29T01:12:19.196Z,2.00
2022-07-29T01:14:46.466Z,1.90
2022-07-29T01:17:24.857Z,2.05
2022-07-29T01:19:54.609Z,2.15
2022-07-29T01:22:27.002Z,2.05
2022-07-29T01:25:08.636Z,2.10
2022-07-29T01:27:47.198Z,2.50
2022-07-29T01:30:14.739Z,2.15
2022-07-29T01:32:43.724Z,2.20
2022-07-29T01:35:15.735Z,1.98
2022-07-29T01:37:51.115Z,2.17
2022-07-29T01:40:22.082Z,1.80
2022-07-29T01:42:53.483Z,2.10
2022-07-29T01:45:22.460Z,2.05
2022-07-29T01:48:07.741Z,1.92
2022-07-29T01:50:35.382Z,2.00
2022-07-29T01:53:03.296Z,1.95
2022-07-29T01:55:32.049Z,2.10
2022-07-29T01:57:59.815Z,2.45
2022-07-29T02:00:26.834Z,2.13
2022-07-29T02:02:54.157Z,1.90
2022-07-29T02:05:22.508Z,2.00
2022-07-29T02:07:49.431Z,2.20
2022-07-29T02:10:17.156Z,2.10
2022-07-29T02:12:49.853Z,2.20
2022-07-29T02:15:17.680Z,2.10
2022-07-29T02:17:51.779Z,1.80
2022-07-29T02:20:18.401Z,1.90
2022-07-29T02:22:45.314Z,2.15
2022-07-29T02:25:14.097Z,2.22
2022-07-29T02:27:42.094Z,2.17
2022-07-29T02:30:08.961Z,2.35
2022-07-29T02:32:36.264Z,2.50
2022-07-29T02:35:03.151Z,2.55
2022-07-29T02:37:30.447Z,2.20
2022-07-29T02:39:58.267Z,2.50
2022-07-29T02:42:25.022Z,2.40
2022-07-29T02:44:51.417Z,2.38
2022-07-29T02:47:20.214Z,2.47
2022-07-29T02:49:53.609Z,2.53
2022-07-29T02:52:25.304Z,2.30
2022-07-29T02:54:54.507Z,2.88
2022-07-29T02:57:31.068Z,2.55
2022-07-29T02:59:59.749Z,2.53
2022-07-29T03:02:27.642Z,2.70
2022-07-29T03:04:55.120Z,2.42
2022-07-29T03:07:21.885Z,2.40
2022-07-29T03:09:48.306Z,2.55
2022-07-29T03:12:15.734Z,2.63
2022-07-29T03:14:42.148Z,2.38
2022-07-29T03:17:10.233Z,2.60
2022-07-29T03:19:36.805Z,2.60
2022-07-29T03:22:03.161Z,2.50
2022-07-29T03:24:30.804Z,2.60
2022-07-29T03:26:57.763Z,2.65
2022-07-29T03:29:24.739Z,2.70
2022-07-29T03:31:59.685Z,2.67
2022-07-29T03:34:26.013Z,2.90
2022-07-29T03:36:52.421Z,2.90
2022-07-29T03:39:21.396Z,2.28
2022-07-29T03:41:48.596Z,2.58
2022-07-29T03:44:16.899Z,2.70
2022-07-29T03:46:44.406Z,2.75
2022-07-29T03:49:12.217Z,2.60
2022-07-29T03:51:39.585Z,2.53
2022-07-29T03:54:09.931Z,2.90
2022-07-29T03:56:38.850Z,2.67
2022-07-29T03:59:05.546Z,2.58
2022-07-29T04:01:34.305Z,2.45
2022-07-29T04:04:01.847Z,2.70
2022-07-29T04:06:28.198Z,2.65
2022-07-29T04:08:54.516Z,2.40
2022-07-29T04:11:20.949Z,2.40
2022-07-29T04:13:47.270Z,2.33
2022-07-29T04:16:13.632Z,2.38
2022-07-29T04:18:40.072Z,2.30
2022-07-29T04:21:06.376Z,2.30
2022-07-29T04:23:34.350Z,2.70
2022-07-29T04:26:02.030Z,2.40
2022-07-29T04:28:28.377Z,2.40
2022-07-29T04:30:54.781Z,2.70
2022-07-29T04:33:21.078Z,2.13
2022-07-29T04:35:52.397Z,2.20
2022-07-29T04:38:19.044Z,3.10
2022-07-29T04:40:45.349Z,2.50
2022-07-29T04:43:14.351Z,2.83
2022-07-29T04:45:41.983Z,2.40
2022-07-29T04:48:08.604Z,2.30
2022-07-29T04:50:34.872Z,2.30
2022-07-29T04:53:01.236Z,2.10
2022-07-29T04:55:27.550Z,2.20
2022-07-29T19:58:23.391Z,3.45
2022-07-29T20:00:53.620Z,3.65
2022-07-29T20:03:20.033Z,3.40
2022-07-29T20:05:48.042Z,3.70
2022-07-29T20:08:14.844Z,4.00
2022-07-29T20:10:46.631Z,3.95
2022-07-29T20:13:13.045Z,3.78
2022-07-29T20:15:39.391Z,3.95
2022-07-29T20:18:05.813Z,4.28
2022-07-29T20:20:32.141Z,3.50
2022-07-29T20:22:59.228Z,3.17
2022-07-29T20:25:25.534Z,3.63
2022-07-29T20:27:54.824Z,3.38
2022-07-29T20:30:21.557Z,3.08
2022-07-29T20:32:48.397Z,3.28
2022-07-29T20:35:14.914Z,2.80
2022-07-29T20:37:52.153Z,3.45
2022-07-29T20:40:22.756Z,3.50
2022-07-29T20:42:49.139Z,3.10
2022-07-29T20:45:15.552Z,3.10
2022-07-29T20:47:42.116Z,3.47
2022-07-29T20:50:10.032Z,3.15
2022-07-29T20:52:36.484Z,3.38
2022-07-29T20:55:02.958Z,3.30
2022-07-29T20:57:38.589Z,3.13
2022-07-29T21:00:06.652Z,3.40
2022-07-29T21:02:33.381Z,3.17
2022-07-29T21:05:02.844Z,3.50
2022-07-29T21:07:29.524Z,3.63
2022-07-29T21:09:55.811Z,3.40
2022-07-29T21:12:22.603Z,3.50
2022-07-29T21:14:49.331Z,3.35
2022-07-29T21:17:16.599Z,3.95
2022-07-29T21:19:42.871Z,3.80
2022-07-29T21:22:09.580Z,4.20
2022-07-29T21:24:36.135Z,4.53
2022-07-29T21:27:22.001Z,3.97
2022-07-29T21:29:48.533Z,3.90
2022-07-29T21:32:27.673Z,4.15
2022-07-29T21:34:56.559Z,4.32
2022-07-29T21:37:22.920Z,4.35
2022-07-29T21:39:49.249Z,4.50
2022-07-29T21:42:15.735Z,4.53
2022-07-29T21:44:42.140Z,4.38
2022-07-29T21:47:09.107Z,4.72
2022-07-29T21:49:39.159Z,4.47
2022-07-29T21:52:05.776Z,4.78
2022-07-29T21:54:34.253Z,4.65
2022-07-29T21:57:00.695Z,4.93
2022-07-29T21:59:27.343Z,4.78
2022-07-29T22:01:53.679Z,4.60
2022-07-29T22:04:20.425Z,5.30
2022-07-29T22:06:47.075Z,4.43
2022-07-29T22:09:13.516Z,4.95
2022-07-29T22:11:39.884Z,4.93
2022-07-29T22:14:07.255Z,4.55
2022-07-29T22:16:33.662Z,5.13
2022-07-29T22:18:59.982Z,4.72
2022-07-29T22:21:26.371Z,4.15
2022-07-29T22:23:52.682Z,4.70
2022-07-29T22:26:19.584Z,4.10
2022-07-29T22:28:46.247Z,4.63
2022-07-29T22:31:12.573Z,4.53
2022-07-29T22:33:38.974Z,4.68
2022-07-29T22:36:05.348Z,4.43
2022-07-29T22:38:31.707Z,5.57
2022-07-29T22:41:00.559Z,7.40
2022-07-29T22:43:27.712Z,7.53
2022-07-29T22:45:54.051Z,7.28
2022-07-29T22:48:20.530Z,6.22
2022-07-29T22:50:46.876Z,5.38
2022-07-29T22:53:13.354Z,5.38
2022-07-29T22:55:39.731Z,5.35
2022-07-29T22:58:06.302Z,5.10
2022-07-29T23:00:32.603Z,4.45
2022-07-29T23:02:58.904Z,4.60
2022-07-29T23:05:26.053Z,4.40
2022-07-29T23:07:52.403Z,4.68
2022-07-29T23:10:18.898Z,4.25
2022-07-29T23:12:45.178Z,4.35
2022-07-29T23:15:11.659Z,4.43
2022-07-29T23:17:38.033Z,4.28
2022-07-29T23:20:05.785Z,4.47
2022-07-29T23:22:32.057Z,4.30
2022-07-29T23:24:58.353Z,4.50
2022-07-29T23:27:24.839Z,4.38
2022-07-29T23:29:51.230Z,4.10
2022-07-29T23:32:17.509Z,4.90
2022-07-29T23:34:43.867Z,4.72
2022-07-29T23:37:10.426Z,4.35
2022-07-29T23:39:36.723Z,4.68
2022-07-29T23:42:03.670Z,4.47
2022-07-29T23:44:30.009Z,4.85
2022-07-29T23:46:56.419Z,4.60
2022-07-29T23:49:22.832Z,5.10
2022-07-29T23:51:49.411Z,4.90
2022-07-29T23:54:15.768Z,4.43
2022-07-29T23:56:42.044Z,4.90
2022-07-29T23:59:08.411Z,4.60
